createdAt,value
2018-10-17T00:00:10.124Z,25.2
2018-10-17T00:02:07.342Z,25.2
2018-10-17T00:04:04.996Z,25.2
2018-10-17T00:06:04.672Z,25.2
2018-10-17T00:08:05.467Z,25.2
2018-10-17T00:10:07.213Z,25.2
2018-10-17T00:12:04.951Z,25.2
2018-10-17T00:14:05.182Z,25.2
2018-10-17T00:16:04.927Z,25.2
2018-10-17T00:18:04.887Z,25.2
2018-10-17T00:20:05.595Z,25.2
2018-10-17T00:22:05.278Z,25.2
2018-10-17T00:24:05.483Z,25.2
2018-10-17T00:26:05.178Z,25.2
2018-10-17T00:28:04.989Z,25.1
2018-10-17T00:30:04.714Z,25.2
2018-10-17T00:32:05.419Z,25.2
2018-10-17T00:34:07.630Z,25.1
2018-10-17T00:36:05.323Z,25.2
2018-10-17T00:38:04.984Z,25.2
2018-10-17T00:40:07.207Z,25.2
2018-10-17T00:42:04.886Z,25.2
2018-10-17T00:44:05.060Z,25.2
2018-10-17T00:46:07.303Z,25.2
2018-10-17T00:48:10.108Z,25.1
2018-10-17T00:50:10.408Z,25.1
2018-10-17T00:52:05.076Z,25.2
2018-10-17T00:54:04.763Z,25.1
2018-10-17T00:56:05.489Z,25.2
2018-10-17T00:58:07.944Z,25.2
2018-10-17T01:00:07.412Z,25.1
2018-10-17T01:02:15.755Z,25.1
2018-10-17T01:04:05.530Z,25.1
2018-10-17T01:06:05.262Z,25.1
2018-10-17T01:08:04.909Z,25.1
2018-10-17T01:10:08.209Z,25.1
2018-10-17T01:12:04.896Z,25.1
2018-10-17T01:14:10.620Z,25.1
2018-10-17T01:16:05.390Z,25.1
2018-10-17T01:18:04.812Z,25.1
2018-10-17T01:20:15.615Z,25.1
2018-10-17T01:22:10.041Z,25.1
2018-10-17T01:24:09.792Z,25.1
2018-10-17T01:26:05.500Z,25.1
2018-10-17T01:28:05.184Z,25.1
2018-10-17T01:30:04.883Z,25.1
2018-10-17T01:32:05.597Z,25.1
2018-10-17T01:34:05.371Z,25.1
2018-10-17T01:36:05.572Z,25.1
2018-10-17T01:38:07.280Z,25.1
2018-10-17T01:40:18.195Z,25.1
2018-10-17T01:42:05.672Z,25.1
2018-10-17T01:52:52.564Z,25.1
2018-10-17T01:54:04.661Z,25.1
2018-10-17T01:56:04.712Z,25.1
2018-10-17T01:58:05.472Z,25.1
2018-10-17T02:00:05.174Z,25
2018-10-17T02:02:05.364Z,25.1
2018-10-17T02:04:05.142Z,25.1
2018-10-17T02:06:07.407Z,25.1
2018-10-17T02:08:05.096Z,25
2018-10-17T02:10:04.988Z,25.1
2018-10-17T02:12:04.669Z,25.1
2018-10-17T02:14:05.366Z,25.1
2018-10-17T02:16:05.105Z,25.1
2018-10-17T02:18:07.600Z,25.1
2018-10-17T02:20:04.861Z,25
2018-10-17T02:22:04.679Z,25
2018-10-17T02:24:04.985Z,25
2018-10-17T02:26:09.834Z,25.1
2018-10-17T02:28:08.022Z,25.1
2018-10-17T02:30:04.908Z,25
2018-10-17T02:32:07.807Z,25
2018-10-17T02:34:07.601Z,25
2018-10-17T02:36:05.312Z,25
2018-10-17T02:38:05.005Z,25
2018-10-17T02:40:04.690Z,25
2018-10-17T02:42:10.530Z,25
2018-10-17T02:44:05.257Z,25
2018-10-17T02:46:05.002Z,25.1
2018-10-17T02:48:07.240Z,25
2018-10-17T02:50:07.599Z,25
2018-10-17T02:52:05.297Z,25
2018-10-17T02:54:05.039Z,25
2018-10-17T02:56:04.759Z,25
2018-10-17T02:58:05.540Z,25
2018-10-17T03:00:05.214Z,25
2018-10-17T03:02:04.951Z,25
2018-10-17T03:04:04.692Z,25
2018-10-17T03:06:05.682Z,24.9
2018-10-17T03:08:04.936Z,24.9
2018-10-17T03:10:04.681Z,24.9
2018-10-17T03:12:07.935Z,25
2018-10-17T03:14:07.163Z,25
2018-10-17T03:16:09.964Z,25
2018-10-17T03:18:07.398Z,25
2018-10-17T03:20:05.123Z,25
2018-10-17T03:22:07.374Z,25
2018-10-17T03:24:05.072Z,25
2018-10-17T03:26:07.293Z,25
2018-10-17T03:28:05.711Z,25
2018-10-17T03:30:05.130Z,25
2018-10-17T03:32:05.504Z,25
2018-10-17T03:34:05.222Z,25
2018-10-17T03:36:05.102Z,25
2018-10-17T03:38:07.624Z,25
2018-10-17T03:40:12.504Z,25
2018-10-17T03:42:05.243Z,25
2018-10-17T03:44:05.514Z,25.1
2018-10-17T03:46:05.289Z,25
2018-10-17T03:48:13.121Z,25
2018-10-17T03:50:04.874Z,25.1
2018-10-17T03:52:10.684Z,25
2018-10-17T03:54:05.415Z,25
2018-10-17T03:56:05.172Z,25
2018-10-17T03:58:05.455Z,25.1
2018-10-17T04:00:07.715Z,25.1
2018-10-17T04:02:07.959Z,25
2018-10-17T04:04:07.170Z,25
2018-10-17T04:06:10.005Z,25
2018-10-17T04:08:12.342Z,25
2018-10-17T04:10:05.067Z,25
2018-10-17T04:12:04.777Z,25
2018-10-17T04:14:05.542Z,24.9
2018-10-17T04:16:10.308Z,24.9
2018-10-17T04:18:05.201Z,24.9
2018-10-17T04:20:10.036Z,24.9
2018-10-17T04:22:04.687Z,24.9
2018-10-17T04:24:05.462Z,25
2018-10-17T04:26:04.702Z,25
2018-10-17T04:28:05.525Z,24.9
2018-10-17T04:30:08.378Z,24.9
2018-10-17T04:32:07.314Z,25
2018-10-17T04:34:05.013Z,25
2018-10-17T04:36:07.494Z,25
2018-10-17T04:38:04.684Z,25
2018-10-17T04:40:05.359Z,25
2018-10-17T04:42:10.681Z,24.9
2018-10-17T04:44:05.383Z,25
2018-10-17T04:46:05.623Z,25
2018-10-17T04:48:04.848Z,25
2018-10-17T04:50:05.589Z,25
2018-10-17T04:52:04.787Z,24.9
2018-10-17T04:54:05.563Z,24.9
2018-10-17T04:56:10.347Z,24.9
2018-10-17T04:58:10.161Z,24.8
2018-10-17T05:00:04.847Z,24.8
2018-10-17T05:02:05.574Z,24.8
2018-10-17T05:04:05.405Z,24.7
2018-10-17T05:06:04.882Z,24.6
2018-10-17T05:08:05.639Z,24.6
2018-10-17T05:10:05.065Z,24.6
2018-10-17T05:12:04.791Z,24.6
2018-10-17T05:14:05.485Z,24.5
2018-10-17T05:16:04.710Z,24.5
2018-10-17T05:18:05.686Z,24.5
2018-10-17T05:20:05.416Z,24.5
2018-10-17T05:22:05.108Z,24.6
2018-10-17T05:24:04.821Z,24.6
2018-10-17T05:26:05.707Z,24.7
2018-10-17T05:28:07.903Z,24.7
2018-10-17T05:30:05.088Z,24.7
2018-10-17T05:32:10.009Z,24.6
2018-10-17T05:34:05.028Z,24.6
2018-10-17T05:36:04.751Z,24.6
2018-10-17T05:38:05.553Z,24.6
2018-10-17T05:40:04.774Z,24.6
2018-10-17T05:42:05.045Z,24.6
2018-10-17T05:44:04.795Z,24.7
2018-10-17T05:46:05.547Z,24.6
2018-10-17T05:48:05.227Z,24.6
2018-10-17T05:50:05.499Z,24.6
2018-10-17T05:52:05.205Z,24.6
2018-10-17T05:54:05.425Z,24.6
2018-10-17T05:56:05.171Z,24.6
2018-10-17T05:58:04.948Z,24.5
2018-10-17T06:00:09.718Z,24.5
2018-10-17T06:02:05.603Z,24.5
2018-10-17T06:04:07.356Z,24.5
2018-10-17T06:06:05.121Z,24.5
2018-10-17T06:08:04.825Z,24.5
2018-10-17T06:10:10.662Z,24.5
2018-10-17T06:12:04.858Z,24.5
2018-10-17T06:14:07.627Z,24.5
2018-10-17T06:16:05.281Z,24.5
2018-10-17T06:18:05.132Z,24.5
2018-10-17T06:20:07.968Z,24.5
2018-10-17T06:22:07.229Z,24.5
2018-10-17T06:24:07.458Z,24.5
2018-10-17T06:26:05.156Z,24.5
2018-10-17T06:28:05.368Z,24.5
2018-10-17T06:30:10.268Z,24.4
2018-10-17T06:32:04.996Z,24.4
2018-10-17T06:34:04.915Z,24.4
2018-10-17T06:36:04.957Z,24.4
2018-10-17T06:38:05.001Z,24.4
2018-10-17T06:40:04.705Z,24.4
2018-10-17T06:42:05.402Z,24.4
2018-10-17T06:44:05.197Z,24.4
2018-10-17T06:46:05.534Z,24.4
2018-10-17T06:48:05.207Z,24.4
2018-10-17T06:50:04.931Z,24.4
2018-10-17T06:52:10.170Z,24
2018-10-17T06:54:05.003Z,24.1
2018-10-17T06:56:10.487Z,24.1
2018-10-17T06:58:04.713Z,24.1
2018-10-17T07:00:05.437Z,24.1
2018-10-17T07:02:05.264Z,24.1
2018-10-17T07:04:12.738Z,24.1
2018-10-17T07:06:05.473Z,24.1
2018-10-17T07:08:05.158Z,24.1
2018-10-17T07:10:05.446Z,24.1
2018-10-17T07:12:07.708Z,24.1
2018-10-17T07:14:05.419Z,24.1
2018-10-17T07:16:05.070Z,24.1
2018-10-17T07:18:04.953Z,24.2
2018-10-17T07:20:04.650Z,24.1
2018-10-17T07:22:05.375Z,24.2
2018-10-17T07:24:05.339Z,24.2
2018-10-17T07:26:05.287Z,24.1
2018-10-17T07:28:05.448Z,24.1
2018-10-17T07:30:05.125Z,24.1
2018-10-17T07:32:05.377Z,24.1
2018-10-17T07:34:05.136Z,24.2
2018-10-17T07:36:04.884Z,24.2
2018-10-17T07:38:04.979Z,24.3
2018-10-17T07:40:04.711Z,24.3
2018-10-17T07:42:05.616Z,24.4
2018-10-17T07:44:12.387Z,24.5
2018-10-17T07:46:05.072Z,24.5
2018-10-17T07:48:09.988Z,24.5
2018-10-17T07:50:04.976Z,24.5
2018-10-17T07:52:04.691Z,24.6
2018-10-17T07:54:05.505Z,24.6
2018-10-17T07:56:04.761Z,24.6
2018-10-17T07:58:05.738Z,24.7
2018-10-17T08:00:05.518Z,24.6
2018-10-17T08:02:09.911Z,24.5
2018-10-17T08:04:04.604Z,24.5
2018-10-17T08:06:05.349Z,24.6
2018-10-17T08:08:08.152Z,24.8
2018-10-17T08:10:07.444Z,24.9
2018-10-17T08:12:05.408Z,24.8
2018-10-17T08:14:08.181Z,24.9
2018-10-17T08:16:05.028Z,24.9
2018-10-17T08:18:04.970Z,25
2018-10-17T08:20:05.099Z,25
2018-10-17T08:22:04.893Z,25.1
2018-10-17T08:24:05.605Z,25.1
2018-10-17T08:26:07.174Z,25.1
2018-10-17T08:28:09.925Z,25
2018-10-17T08:30:04.660Z,25
2018-10-17T08:32:04.705Z,25
2018-10-17T08:34:05.409Z,25
2018-10-17T08:36:05.448Z,25
2018-10-17T08:38:07.958Z,25.1
2018-10-17T08:40:10.317Z,25
2018-10-17T08:42:05.007Z,25
2018-10-17T08:44:04.788Z,25.1
2018-10-17T08:46:04.762Z,25.1
2018-10-17T08:48:07.576Z,25.1
2018-10-17T08:50:05.319Z,25.1
2018-10-17T08:52:05.101Z,25.1
2018-10-17T08:54:04.822Z,25
2018-10-17T08:56:05.580Z,25.1
2018-10-17T08:58:09.697Z,25.1
2018-10-17T09:00:05.390Z,25.1
2018-10-17T09:02:05.163Z,25
2018-10-17T09:04:10.303Z,25
2018-10-17T09:06:05.128Z,25
2018-10-17T09:08:10.363Z,24.9
2018-10-17T09:10:05.421Z,24.9
2018-10-17T09:12:10.164Z,24.2
2018-10-17T09:14:05.366Z,25
2018-10-17T09:16:05.426Z,25
2018-10-17T09:18:04.949Z,25
2018-10-17T09:20:05.421Z,25
2018-10-17T09:22:05.127Z,25
2018-10-17T09:24:05.106Z,25
2018-10-17T09:26:05.305Z,25
2018-10-17T09:28:05.088Z,24.8
2018-10-17T09:30:05.054Z,24.7
2018-10-17T09:32:05.293Z,24.7
2018-10-17T09:34:10.141Z,24.7
2018-10-17T09:36:07.881Z,24.6
2018-10-17T09:38:04.960Z,24.6
2018-10-17T09:40:05.259Z,24.7
2018-10-17T09:42:05.603Z,24.7
2018-10-17T09:44:04.720Z,24.7
2018-10-17T09:46:05.557Z,24.6
2018-10-17T09:48:10.126Z,24.7
2018-10-17T09:50:05.534Z,24.7
2018-10-17T09:52:05.234Z,24.7
2018-10-17T09:54:07.881Z,24.7
2018-10-17T09:56:05.125Z,24.7
2018-10-17T09:58:07.454Z,24.6
2018-10-17T10:00:10.652Z,24.6
2018-10-17T10:02:04.941Z,24.6
2018-10-17T10:04:04.827Z,24.7
2018-10-17T10:06:04.863Z,24.6
2018-10-17T10:08:04.922Z,24.6
2018-10-17T10:10:05.703Z,24.6
2018-10-17T10:12:04.722Z,24.6
2018-10-17T10:14:04.932Z,24.6
2018-10-17T10:16:04.727Z,24.6
2018-10-17T10:18:15.228Z,24.6
2018-10-17T10:20:05.005Z,24.6
2018-10-17T10:22:04.800Z,24.6
2018-10-17T10:24:10.002Z,24.6
2018-10-17T10:26:05.169Z,24.6
2018-10-17T10:28:05.009Z,24.6
2018-10-17T10:30:07.796Z,24.6
2018-10-17T10:32:04.714Z,24.6
2018-10-17T10:34:05.441Z,24.6
2018-10-17T10:36:05.640Z,24.6
2018-10-17T10:38:07.189Z,24.6
2018-10-17T10:40:04.999Z,24.6
2018-10-17T10:42:05.203Z,24.6
2018-10-17T10:44:05.363Z,24.6
2018-10-17T10:46:05.433Z,24.6
2018-10-17T10:48:05.210Z,24.6
2018-10-17T10:50:04.758Z,24.5
2018-10-17T10:52:04.767Z,24.6
2018-10-17T10:54:05.684Z,24.6
2018-10-17T10:56:05.313Z,24.6
2018-10-17T10:58:05.298Z,24.6
2018-10-17T11:00:04.712Z,24.5
2018-10-17T11:02:04.841Z,24.5
2018-10-17T11:04:12.458Z,24.5
2018-10-17T11:06:05.176Z,24.6
2018-10-17T11:08:05.019Z,24.5
2018-10-17T11:10:07.517Z,24.6
2018-10-17T11:12:07.761Z,24.6
2018-10-17T11:14:05.111Z,24.5
2018-10-17T11:16:05.127Z,24.5
2018-10-17T11:18:05.014Z,24.5
2018-10-17T11:20:04.711Z,24.5
2018-10-17T11:22:05.498Z,24.5
2018-10-17T11:24:04.694Z,24.5
2018-10-17T11:26:05.423Z,24.5
2018-10-17T11:28:05.144Z,24.5
2018-10-17T11:30:04.890Z,24.5
2018-10-17T11:32:05.668Z,24.5
2018-10-17T11:34:07.900Z,24.5
2018-10-17T11:36:05.620Z,24.5
2018-10-17T11:38:07.947Z,24.5
2018-10-17T11:40:05.280Z,24.5
2018-10-17T11:42:06.289Z,24.5
2018-10-17T11:44:05.046Z,24.6
2018-10-17T11:46:04.799Z,24.5
2018-10-17T11:48:05.597Z,24.5
2018-10-17T11:50:05.373Z,24.5
2018-10-17T11:52:05.092Z,24.4
2018-10-17T11:54:07.322Z,24.4
2018-10-17T11:56:05.088Z,24.4
2018-10-17T11:58:04.790Z,24.4
2018-10-17T12:00:05.511Z,24.4
2018-10-17T12:02:05.316Z,24.5
2018-10-17T12:04:05.351Z,24.5
2018-10-17T12:06:05.777Z,24.4
2018-10-17T12:08:05.255Z,24.4
2018-10-17T12:10:05.241Z,24.4
2018-10-17T12:12:05.073Z,24.4
2018-10-17T12:14:07.508Z,24.4
2018-10-17T12:16:04.795Z,24.4
2018-10-17T12:18:05.043Z,24.4
2018-10-17T12:20:05.273Z,24.4
2018-10-17T12:22:04.972Z,24.4
2018-10-17T12:24:07.370Z,24.4
2018-10-17T12:26:05.269Z,24.4
2018-10-17T12:28:05.273Z,24.4
2018-10-17T12:30:05.062Z,24.4
2018-10-17T12:32:09.737Z,24.4
2018-10-17T12:34:05.051Z,24.4
2018-10-17T12:36:07.310Z,24.4
2018-10-17T12:38:07.611Z,24.4
2018-10-17T12:40:05.317Z,24.3
2018-10-17T12:42:08.110Z,24.4
2018-10-17T12:44:04.816Z,24.4
2018-10-17T12:46:04.910Z,24.4
2018-10-17T12:48:04.734Z,24.4
2018-10-17T12:50:05.449Z,24.4
2018-10-17T12:52:05.289Z,24.4
2018-10-17T12:54:05.393Z,24.4
2018-10-17T12:56:05.151Z,24.5
2018-10-17T12:58:05.164Z,24.5
2018-10-17T13:00:04.871Z,24.4
2018-10-17T13:02:04.691Z,24.5
2018-10-17T13:04:05.408Z,24.5
2018-10-17T13:06:07.640Z,24.4
2018-10-17T13:08:05.298Z,24.4
2018-10-17T13:10:05.746Z,24.4
2018-10-17T13:12:05.506Z,24.4
2018-10-17T13:14:05.182Z,24.5
2018-10-17T13:16:08.108Z,24.5
2018-10-17T13:18:05.075Z,24.4
2018-10-17T13:20:07.302Z,24.5
2018-10-17T13:22:05.636Z,24.5
2018-10-17T13:24:05.350Z,24.4
2018-10-17T13:26:05.160Z,24.5
2018-10-17T13:28:07.393Z,24.5
2018-10-17T13:30:05.189Z,24.5
2018-10-17T13:32:04.923Z,24.5
2018-10-17T13:34:04.646Z,24.4
2018-10-17T13:36:07.553Z,24.4
2018-10-17T13:38:05.250Z,24.4
2018-10-17T13:40:05.045Z,24.4
2018-10-17T13:42:05.231Z,24.4
2018-10-17T13:44:05.002Z,24.5
2018-10-17T13:46:04.820Z,24.5
2018-10-17T13:48:07.329Z,24.4
2018-10-17T13:50:05.259Z,24.4
2018-10-17T13:52:05.009Z,24.5
2018-10-17T13:54:04.885Z,24.5
2018-10-17T13:56:08.120Z,24.5
2018-10-17T13:58:04.845Z,24.5
2018-10-17T14:00:04.838Z,24.5
2018-10-17T14:02:04.926Z,24.5
2018-10-17T14:04:07.230Z,24.6
2018-10-17T14:06:08.251Z,24.6
2018-10-17T14:08:05.037Z,24.6
2018-10-17T14:10:04.735Z,24.6
2018-10-17T14:12:13.228Z,24.6
2018-10-17T14:14:05.394Z,24.6
2018-10-17T14:16:05.148Z,24.7
2018-10-17T14:18:05.052Z,24.6
2018-10-17T14:20:07.253Z,24.7
2018-10-17T14:22:07.735Z,24.7
2018-10-17T14:24:04.963Z,24.7
2018-10-17T14:26:05.119Z,24.8
2018-10-17T14:28:04.818Z,24.7
2018-10-17T14:30:07.340Z,24.9
2018-10-17T14:32:05.296Z,24.8
2018-10-17T14:34:04.745Z,24.8
2018-10-17T14:36:05.498Z,24.8
2018-10-17T14:38:05.273Z,24.8
2018-10-17T14:40:04.675Z,24.8
2018-10-17T14:42:05.042Z,24.8
2018-10-17T14:44:04.817Z,24.8
2018-10-17T14:46:08.054Z,24.7
2018-10-17T14:48:07.272Z,24.7
2018-10-17T14:50:05.301Z,24.7
2018-10-17T14:52:05.026Z,24.7
2018-10-17T14:54:06.524Z,24.8
2018-10-17T14:56:07.792Z,24.8
2018-10-17T14:58:04.806Z,24.8
2018-10-17T15:00:07.583Z,24.7
2018-10-17T15:02:05.341Z,24.7
2018-10-17T15:04:05.035Z,24.6
2018-10-17T15:06:05.230Z,24.6
2018-10-17T15:08:10.049Z,24.7
2018-10-17T15:10:04.947Z,24.7
2018-10-17T15:12:04.901Z,24.6
2018-10-17T15:14:05.313Z,24.6
2018-10-17T15:16:07.516Z,24.6
2018-10-17T15:18:08.042Z,24.5
2018-10-17T15:20:05.133Z,24.5
2018-10-17T15:22:07.480Z,24.5
2018-10-17T15:24:05.299Z,24.5
2018-10-17T15:26:12.830Z,24.5
2018-10-17T15:28:08.117Z,24.5
2018-10-17T15:30:04.816Z,24.5
2018-10-17T15:32:04.819Z,24.5
2018-10-17T15:34:08.013Z,24.6
2018-10-17T15:36:09.893Z,24.6
2018-10-17T15:38:05.009Z,24.6
2018-10-17T15:40:07.267Z,24.5
2018-10-17T15:42:05.145Z,24.5
2018-10-17T15:44:07.821Z,24.5
2018-10-17T15:46:08.259Z,24.5
2018-10-17T15:48:05.043Z,24.5
2018-10-17T15:50:05.048Z,24.5
2018-10-17T15:52:04.790Z,24.4
2018-10-17T15:54:05.109Z,24.4
2018-10-17T15:56:05.165Z,24.3
2018-10-17T15:58:08.027Z,24.2
2018-10-17T16:00:04.843Z,24.2
2018-10-17T16:02:05.101Z,24.3
2018-10-17T16:04:05.232Z,24.3
2018-10-17T16:06:04.994Z,24.3
2018-10-17T16:08:04.979Z,24.2
2018-10-17T16:10:07.739Z,24.2
2018-10-17T16:12:05.406Z,24.2
2018-10-17T16:14:07.409Z,24.2
2018-10-17T16:16:05.756Z,24.2
2018-10-17T16:18:04.763Z,24.2
2018-10-17T16:20:04.889Z,24.2
2018-10-17T16:22:09.906Z,24.2
2018-10-17T16:24:04.729Z,24.2
2018-10-17T16:26:05.152Z,24.2
2018-10-17T16:28:05.267Z,24.2
2018-10-17T16:30:05.545Z,24.2
2018-10-17T16:32:04.892Z,24.2
2018-10-17T16:34:05.118Z,24.1
2018-10-17T16:36:05.002Z,24.1
2018-10-17T16:38:05.307Z,24.2
2018-10-17T16:40:08.122Z,24.3
2018-10-17T16:42:04.890Z,24.3
2018-10-17T16:44:05.041Z,24.3
2018-10-17T16:46:09.720Z,24.2
2018-10-17T16:48:05.473Z,24.2
2018-10-17T16:50:10.756Z,24.3
2018-10-17T16:52:07.786Z,24.3
2018-10-17T16:54:05.256Z,24.3
2018-10-17T16:56:07.884Z,24.3
2018-10-17T16:58:05.658Z,24.2
2018-10-17T17:00:04.921Z,24.3
2018-10-17T17:02:09.914Z,24.2
2018-10-17T17:04:05.262Z,24.2
2018-10-17T17:06:05.688Z,24.1
2018-10-17T17:08:04.727Z,24.2
2018-10-17T17:10:07.514Z,24.3
2018-10-17T17:12:12.971Z,24.3
2018-10-17T17:14:05.147Z,24.3
2018-10-17T17:16:04.939Z,24.3
2018-10-17T17:18:04.994Z,24.3
2018-10-17T17:20:05.083Z,24.3
2018-10-17T17:22:04.775Z,24.3
2018-10-17T17:24:10.649Z,24.3
2018-10-17T17:26:08.014Z,24.3
2018-10-17T17:28:04.946Z,24.3
2018-10-17T17:30:05.266Z,24.3
2018-10-17T17:32:07.730Z,24.3
2018-10-17T17:34:07.943Z,24.4
2018-10-17T17:36:09.753Z,24.3
2018-10-17T17:38:04.909Z,24.3
2018-10-17T17:40:05.618Z,24.3
2018-10-17T17:42:05.325Z,24.3
2018-10-17T17:44:08.050Z,24.3
2018-10-17T17:46:04.815Z,24.3
2018-10-17T17:48:04.862Z,24.3
2018-10-17T17:50:05.524Z,24.3
2018-10-17T17:52:05.262Z,24.3
2018-10-17T17:54:05.377Z,24.3
2018-10-17T17:56:07.605Z,24.3
2018-10-17T17:58:04.956Z,24.3
2018-10-17T18:00:05.159Z,24.3
2018-10-17T18:02:04.938Z,24.3
2018-10-17T18:04:07.293Z,24.3
2018-10-17T18:06:04.646Z,24.3
2018-10-17T18:08:07.358Z,24.3
2018-10-17T18:10:05.077Z,24.3
2018-10-17T18:12:05.157Z,24.3
2018-10-17T18:14:04.913Z,24.3
2018-10-17T18:16:04.866Z,24.3
2018-10-17T18:18:08.036Z,24.2
2018-10-17T18:20:04.727Z,24.2
2018-10-17T18:22:07.635Z,24.2
2018-10-17T18:24:04.675Z,24.2
2018-10-17T18:26:05.447Z,24.2
2018-10-17T18:28:05.332Z,24.2
2018-10-17T18:30:04.710Z,24.2
2018-10-17T18:32:05.390Z,24.2
2018-10-17T18:34:05.780Z,24.2
2018-10-17T18:36:04.840Z,24.2
2018-10-17T18:38:05.566Z,24.2
2018-10-17T18:40:07.497Z,24.2
2018-10-17T18:42:10.647Z,24.2
2018-10-17T18:44:05.318Z,24.2
2018-10-17T18:46:05.031Z,24.2
2018-10-17T18:48:05.772Z,24.2
2018-10-17T18:50:05.285Z,24.2
2018-10-17T18:52:05.475Z,24.2
2018-10-17T18:54:05.960Z,24.2
2018-10-17T18:56:06.710Z,24.2
2018-10-17T18:58:06.651Z,24.2
2018-10-17T19:00:05.193Z,24.2
2018-10-17T19:02:05.537Z,24.2
2018-10-17T19:04:05.268Z,24.2
2018-10-17T19:06:05.019Z,24.2
2018-10-17T19:08:04.846Z,24.2
2018-10-17T19:10:07.590Z,24.2
2018-10-17T19:12:07.847Z,24.2
2018-10-17T19:14:13.159Z,24.2
2018-10-17T19:16:04.915Z,24.2
2018-10-17T19:18:04.841Z,24.2
2018-10-17T19:20:05.565Z,24.2
2018-10-17T19:22:05.308Z,24.1
2018-10-17T19:24:05.104Z,24.1
2018-10-17T19:26:07.324Z,24.1
2018-10-17T19:28:08.127Z,24.1
2018-10-17T19:30:04.879Z,24.1
2018-10-17T19:32:04.933Z,24.1
2018-10-17T19:34:04.694Z,24.1
2018-10-17T19:36:08.187Z,24.1
2018-10-17T19:38:04.674Z,24.1
2018-10-17T19:40:05.370Z,24.1
2018-10-17T19:42:08.115Z,24
2018-10-17T19:44:05.462Z,24
2018-10-17T19:46:05.205Z,24
2018-10-17T19:48:05.489Z,24
2018-10-17T19:50:05.212Z,24
2018-10-17T19:52:05.469Z,24
2018-10-17T19:54:10.443Z,24
2018-10-17T19:56:07.198Z,24
2018-10-17T19:58:04.994Z,24
2018-10-17T20:00:07.251Z,24
2018-10-17T20:02:04.967Z,24
2018-10-17T20:04:05.194Z,24
2018-10-17T20:06:07.450Z,24
2018-10-17T20:08:05.192Z,24
2018-10-17T20:10:04.973Z,24
2018-10-17T20:12:04.671Z,24
2018-10-17T20:14:07.941Z,23.9
2018-10-17T20:16:04.911Z,23.9
2018-10-17T20:18:04.861Z,23.9
2018-10-17T20:20:05.583Z,23.9
2018-10-17T20:22:07.830Z,23.9
2018-10-17T20:24:05.621Z,23.9
2018-10-17T20:26:05.379Z,23.9
2018-10-17T20:28:07.632Z,23.9
2018-10-17T20:30:05.512Z,23.9
2018-10-17T20:32:05.224Z,23.9
2018-10-17T20:34:04.904Z,23.8
2018-10-17T20:36:05.672Z,23.9
2018-10-17T20:38:07.904Z,23.8
2018-10-17T20:40:05.644Z,23.8
2018-10-17T20:42:05.386Z,23.8
2018-10-17T20:44:05.487Z,23.8
2018-10-17T20:46:05.176Z,23.8
2018-10-17T20:48:04.739Z,23.8
2018-10-17T20:50:07.917Z,23.8
2018-10-17T20:52:12.241Z,23.7
2018-10-17T20:54:05.200Z,23.7
2018-10-17T20:56:05.065Z,23.8
2018-10-17T20:58:07.643Z,23.7
2018-10-17T21:00:12.424Z,23.7
2018-10-17T21:02:07.679Z,23.7
2018-10-17T21:04:08.113Z,23.7
2018-10-17T21:06:04.857Z,23.7
2018-10-17T21:08:08.228Z,23.7
2018-10-17T21:10:07.920Z,23.6
2018-10-17T21:12:07.173Z,23.6
2018-10-17T21:14:04.971Z,23.6
2018-10-17T21:16:05.068Z,23.6
2018-10-17T21:18:10.672Z,23.7
2018-10-17T21:20:04.739Z,23.7
2018-10-17T21:22:04.835Z,23.7
2018-10-17T21:24:08.106Z,23.7
2018-10-17T21:26:07.456Z,23.7
2018-10-17T21:28:13.236Z,23.6
2018-10-17T21:30:05.013Z,23.6
2018-10-17T21:32:04.945Z,23.6
2018-10-17T21:34:05.159Z,23.5
2018-10-17T21:36:04.928Z,23.5
2018-10-17T21:38:04.628Z,23.5
2018-10-17T21:40:10.629Z,23.5
2018-10-17T21:42:05.315Z,23.5
2018-10-17T21:44:05.115Z,23.5
2018-10-17T21:46:05.293Z,23.5
2018-10-17T21:48:07.740Z,23.5
2018-10-17T21:50:05.494Z,23.5
2018-10-17T21:52:04.659Z,23.6
2018-10-17T21:54:05.359Z,23.6
2018-10-17T21:56:05.613Z,23.6
2018-10-17T21:58:05.531Z,23.6
2018-10-17T22:00:05.201Z,23.6
2018-10-17T22:02:05.074Z,23.6
2018-10-17T22:04:05.510Z,23.6
2018-10-17T22:06:05.303Z,23.6
2018-10-17T22:08:10.102Z,23.7
2018-10-17T22:10:05.532Z,23.7
2018-10-17T22:12:05.313Z,23.7
2018-10-17T22:14:05.055Z,23.7
2018-10-17T22:16:10.149Z,23.7
2018-10-17T22:18:07.618Z,23.8
2018-10-17T22:20:07.876Z,23.8
2018-10-17T22:22:04.910Z,23.8
2018-10-17T22:24:05.595Z,23.8
2018-10-17T22:26:05.367Z,23.8
2018-10-17T22:28:05.535Z,23.9
2018-10-17T22:30:06.411Z,23.9
2018-10-17T22:32:08.009Z,23.9
2018-10-17T22:34:05.214Z,23.9
2018-10-17T22:36:04.972Z,23.9
2018-10-17T22:38:05.293Z,24
2018-10-17T22:40:05.455Z,24
2018-10-17T22:42:07.734Z,24
2018-10-17T22:44:05.213Z,24
2018-10-17T22:46:05.351Z,24
2018-10-17T22:48:07.181Z,24
2018-10-17T22:50:04.981Z,24
2018-10-17T22:52:05.114Z,24
2018-10-17T22:54:05.033Z,24
2018-10-17T22:56:12.520Z,24.1
2018-10-17T22:58:05.046Z,24
2018-10-17T23:00:05.014Z,24.1
2018-10-17T23:02:04.756Z,24.1
2018-10-17T23:04:05.379Z,24.1
2018-10-17T23:06:05.084Z,24.1
2018-10-17T23:08:07.448Z,24.1
2018-10-17T23:10:08.095Z,24.1
2018-10-17T23:12:09.886Z,24.1
2018-10-17T23:14:05.774Z,24.1
2018-10-17T23:16:07.579Z,24.1
2018-10-17T23:18:07.996Z,24.2
2018-10-17T23:20:14.987Z,24.1
2018-10-17T23:22:05.058Z,24.1
2018-10-17T23:24:04.737Z,24.1
2018-10-17T23:26:05.584Z,24.2
2018-10-17T23:28:05.512Z,24.2
2018-10-17T23:30:07.870Z,24.2
2018-10-17T23:32:08.158Z,24.2
2018-10-17T23:34:07.875Z,24.2
2018-10-17T23:36:08.132Z,24.1
2018-10-17T23:38:04.969Z,24.2
2018-10-17T23:40:05.110Z,24.2
2018-10-17T23:42:08.010Z,24.2
2018-10-17T23:44:07.639Z,24.2
2018-10-17T23:46:07.222Z,24.2
2018-10-17T23:48:05.744Z,24.2
2018-10-17T23:50:05.591Z,24.2
2018-10-17T23:52:12.404Z,24.2
2018-10-17T23:54:04.701Z,24.2
2018-10-17T23:56:04.855Z,24.2
2018-10-17T23:58:07.431Z,24.2
